Aliquippa, Pennsylvania
Current Conditions -  °F | °C
As of 10:51 PM on Thursday 18 Dec 2014 (Local Time) from KPIT Reporting Station
Light Snow Light Snow  
Wind Chill: 20°   Ceiling: 1900
Heat Index: 28°   Visibility: 9mi
Dew Point: 22°   Wind: 8mph
Humidity: 78%   Direction: 250°WSW
Pressure: 30.14"   Gusts: NA
Location:  40.62°N, 80.24°W
Report Text: KPIT 190351Z 25007KT 9SM -SN BKN019 OVC029 M02/M06 A3014 RMK AO2 SNB49 SLP228 P0000 T10221056
Loading
Personal Weather Stations






























Interactive Weather Map New forecast layout! Learn more

10-Day Weather Forecast

Advertisements
Track Severe Weather on mobile